Time;durP1;ratioP1;P1;durP2;ratioP2;P2;SDS_P1;SDS_P2;PMS_P1;PMS_P2;Temp;Humidity;BMP_temperature;BMP_pressure;BME280_temperature;BME280_humidity;BME280_pressure;Samples;Min_cycle;Max_cycle;Signal;HPM_P1;HPM_P2
2022/03/27 00:01:23;;;;;;;4.33;2.40;;;;;;;19.37;44.25;103376.78;5028988;28;20040;-72
2022/03/27 00:03:48;;;;;;;3.37;2.00;;;;;;;19.39;44.25;103377.63;5030339;28;20048;-72
2022/03/27 00:06:14;;;;;;;2.80;2.03;;;;;;;20.36;42.42;103370.63;5030512;28;20025;-72
2022/03/27 00:08:39;;;;;;;3.57;2.30;;;;;;;19.41;43.62;103378.53;5013623;28;20030;-72
2022/03/27 00:13:48;;;;;;;3.60;2.77;;;;;;;20.22;43.33;103362.78;5017085;28;20052;-72
2022/03/27 00:16:14;;;;;;;3.77;2.80;;;;;;;21.41;40.25;103363.91;5029649;28;20021;-72
2022/03/27 00:18:41;;;;;;;3.63;2.60;;;;;;;20.68;41.88;103358.75;5029075;28;20075;-71
2022/03/27 00:21:06;;;;;;;4.00;2.63;;;;;;;19.94;42.54;103372.81;5029130;28;20041;-73
2022/03/27 00:23:32;;;;;;;3.87;2.90;;;;;;;20.50;42.41;103355.38;5030722;28;20033;-72
2022/03/27 00:25:57;;;;;;;3.97;2.87;;;;;;;20.83;40.66;103361.22;5029147;28;20393;-72
2022/03/27 00:28:25;;;;;;;4.10;3.10;;;;;;;20.79;41.44;103359.50;5029629;28;20430;-72
2022/03/27 00:30:50;;;;;;;3.77;3.00;;;;;;;19.34;44.27;103360.88;5029395;28;20075;-73
2022/03/27 00:33:16;;;;;;;3.10;2.47;;;;;;;20.53;41.74;103356.25;5021923;28;20061;-72
2022/03/27 00:35:41;;;;;;;3.97;3.03;;;;;;;20.33;41.63;103365.31;4993794;28;20124;-72
2022/03/27 00:38:07;;;;;;;4.07;3.20;;;;;;;21.21;40.06;103361.56;5042269;28;20022;-72
2022/03/27 00:40:33;;;;;;;4.10;3.07;;;;;;;19.86;42.99;103366.69;5017900;28;20029;-72
2022/03/27 00:42:59;;;;;;;4.77;3.03;;;;;;;19.85;43.02;103378.19;5012623;28;20025;-72
2022/03/27 00:45:24;;;;;;;4.57;3.17;;;;;;;20.47;41.23;103360.75;5029404;28;20119;-72
2022/03/27 00:47:50;;;;;;;5.23;3.70;;;;;;;19.95;42.88;103363.97;5028927;28;20131;-72
2022/03/27 00:50:15;;;;;;;3.90;3.00;;;;;;;19.77;42.73;103376.47;5028551;28;20017;-72
2022/03/27 00:52:40;;;;;;;7.67;3.30;;;;;;;19.65;43.23;103360.66;5028912;28;20137;-72
2022/03/27 00:55:06;;;;;;;4.60;3.07;;;;;;;19.83;43.03;103360.50;5028197;28;20040;-72
2022/03/27 00:57:31;;;;;;;5.90;3.60;;;;;;;20.02;42.63;103363.00;5031761;28;20029;-73
2022/03/27 00:59:57;;;;;;;6.30;3.37;;;;;;;19.52;43.62;103370.47;5049815;28;20478;-72
2022/03/27 01:02:24;;;;;;;6.77;3.43;;;;;;;20.50;41.72;103363.34;5034150;28;20087;-72
2022/03/27 01:04:54;;;;;;;4.43;3.50;;;;;;;20.77;40.88;103366.63;5033129;28;20120;-72
2022/03/27 01:07:19;;;;;;;5.47;3.87;;;;;;;20.71;40.44;103365.81;5033039;28;20025;-73
2022/03/27 01:09:48;;;;;;;5.67;3.77;;;;;;;20.80;40.73;103355.94;5032742;28;20580;-72
2022/03/27 01:12:22;;;;;;;6.87;3.83;;;;;;;20.60;40.70;103349.97;5032240;28;20033;-72
2022/03/27 01:14:49;;;;;;;7.57;4.07;;;;;;;19.81;42.88;103362.31;5032481;28;20064;-72
2022/03/27 01:17:17;;;;;;;6.77;4.23;;;;;;;20.50;41.43;103362.50;5031913;28;20026;-73
2022/03/27 01:19:48;;;;;;;6.27;4.27;;;;;;;20.59;40.83;103354.38;5033102;28;20087;-73
2022/03/27 01:22:14;;;;;;;8.33;4.90;;;;;;;18.76;45.06;103357.63;5030482;28;20475;-72
2022/03/27 01:24:40;;;;;;;7.40;4.47;;;;;;;20.08;41.77;103362.06;5032417;28;20416;-73
2022/03/27 01:27:06;;;;;;;9.83;4.83;;;;;;;20.83;40.84;103347.06;5032127;28;20025;-73
2022/03/27 01:29:31;;;;;;;7.27;4.53;;;;;;;20.70;40.52;103348.97;5033717;28;20056;-72
2022/03/27 01:31:57;;;;;;;10.03;5.20;;;;;;;21.43;39.13;103355.91;5031852;28;20041;-72
2022/03/27 01:34:23;;;;;;;13.00;5.80;;;;;;;20.65;40.10;103350.81;5033382;28;20036;-73
2022/03/27 01:36:49;;;;;;;7.80;4.77;;;;;;;20.35;41.07;103352.91;5032022;28;20496;-72
2022/03/27 01:39:16;;;;;;;9.70;5.67;;;;;;;20.64;40.31;103347.25;5032204;28;20017;-73
2022/03/27 01:41:43;;;;;;;9.33;5.13;;;;;;;20.79;39.99;103348.88;5032470;28;20397;-73
2022/03/27 01:44:14;;;;;;;9.30;4.80;;;;;;;20.22;41.25;103345.97;5047962;28;20051;-72
2022/03/27 01:46:41;;;;;;;9.57;5.43;;;;;;;18.92;44.98;103352.31;5017932;28;20026;-72
2022/03/27 01:49:09;;;;;;;9.27;5.43;;;;;;;20.08;41.90;103347.00;5031600;28;20025;-72
2022/03/27 01:51:36;;;;;;;8.20;4.43;;;;;;;19.49;42.74;103344.88;5032066;28;20052;-72
2022/03/27 01:54:02;;;;;;;10.57;5.37;;;;;;;19.60;42.09;103357.16;5038041;28;20029;-73
2022/03/27 01:56:27;;;;;;;11.60;5.93;;;;;;;20.10;41.28;103352.28;5033329;28;20029;-72
2022/03/27 01:58:53;;;;;;;12.03;5.83;;;;;;;18.22;45.10;103349.88;5032975;28;20025;-71
2022/03/27 02:01:22;;;;;;;11.23;5.80;;;;;;;18.43;44.68;103351.56;5032691;28;20025;-72
2022/03/27 02:03:48;;;;;;;10.73;5.17;;;;;;;17.73;47.17;103358.72;5052168;28;20119;-73
2022/03/27 02:06:15;;;;;;;9.97;5.23;;;;;;;19.30;43.10;103348.53;5031274;28;20087;-72
2022/03/27 02:08:42;;;;;;;13.23;5.90;;;;;;;19.34;42.35;103347.59;5031301;28;20022;-72
2022/03/27 02:11:09;;;;;;;10.53;5.60;;;;;;;18.81;43.92;103344.38;5031027;28;20030;-73
2022/03/27 02:13:35;;;;;;;10.17;5.07;;;;;;;19.18;42.83;103345.94;5032264;28;20080;-72
2022/03/27 02:16:02;;;;;;;14.67;6.80;;;;;;;18.64;43.72;103347.06;5047864;28;20025;-73
2022/03/27 02:18:32;;;;;;;13.80;6.17;;;;;;;17.00;48.50;103347.16;5050940;28;20028;-72
2022/03/27 02:21:00;;;;;;;13.97;5.27;;;;;;;16.69;50.24;103352.31;5034769;28;20140;-72
2022/03/27 02:23:26;;;;;;;9.77;4.87;;;;;;;17.50;48.21;103347.25;5050763;28;20120;-72
2022/03/27 02:25:53;;;;;;;11.77;5.53;;;;;;;18.27;45.86;103347.19;5032462;28;20041;-71
2022/03/27 02:28:19;;;;;;;16.30;7.50;;;;;;;17.55;47.62;103345.50;5032371;28;20482;-72
2022/03/27 02:30:45;;;;;;;17.10;7.60;;;;;;;18.55;45.13;103347.13;5031335;28;20068;-72
2022/03/27 02:33:10;;;;;;;23.37;8.27;;;;;;;17.42;47.75;103350.78;5013876;28;20026;-72
2022/03/27 02:35:36;;;;;;;16.77;6.53;;;;;;;18.91;44.33;103340.81;5031216;28;20452;-72
2022/03/27 02:38:07;;;;;;;12.07;5.77;;;;;;;18.59;44.43;103333.88;5038639;28;20022;-72
2022/03/27 02:40:36;;;;;;;11.47;5.90;;;;;;;18.78;43.96;103336.41;5031308;28;20029;-72
2022/03/27 02:43:02;;;;;;;11.53;5.63;;;;;;;18.26;45.54;103330.44;5021418;28;20049;-72
2022/03/27 02:45:28;;;;;;;16.03;7.23;;;;;;;18.86;43.57;103341.69;5030870;28;20025;-72
2022/03/27 02:47:56;;;;;;;14.73;5.97;;;;;;;18.20;45.62;103335.75;5030135;28;20021;-72
2022/03/27 02:50:22;;;;;;;12.97;6.03;;;;;;;17.57;46.78;103338.44;5030985;28;20025;-72
2022/03/27 02:52:48;;;;;;;12.97;5.73;;;;;;;18.17;45.22;103332.25;5050604;28;20025;-73
2022/03/27 02:55:14;;;;;;;15.20;6.63;;;;;;;18.17;44.81;103332.25;5040593;28;20032;-72
2022/03/27 02:57:39;;;;;;;14.33;6.57;;;;;;;18.20;44.79;103334.88;5031395;28;20091;-72
2022/03/27 03:00:07;;;;;;;12.10;5.57;;;;;;;17.64;46.17;103335.78;5030255;28;20032;-72
2022/03/27 03:02:33;;;;;;;12.07;6.57;;;;;;;18.13;45.11;103334.91;5046968;28;20503;-72
2022/03/27 03:04:59;;;;;;;13.80;6.60;;;;;;;18.70;43.87;103331.19;5040080;28;20032;-73
2022/03/27 03:07:24;;;;;;;15.67;7.20;;;;;;;19.62;41.96;103328.84;5030780;28;20029;-72
2022/03/27 03:09:50;;;;;;;14.43;6.47;;;;;;;19.45;41.72;103327.22;5032202;28;20032;-72
2022/03/27 03:12:16;;;;;;;14.00;6.33;;;;;;;18.64;42.97;103329.44;5030674;28;20028;-72
2022/03/27 03:14:42;;;;;;;13.80;6.47;;;;;;;17.99;44.79;103330.53;5030263;28;20034;-71
2022/03/27 03:17:08;;;;;;;14.63;5.97;;;;;;;17.95;45.71;103330.50;5030104;28;20493;-72
2022/03/27 03:19:33;;;;;;;11.37;6.00;;;;;;;18.24;44.49;103321.63;5032088;28;20096;-72
2022/03/27 03:21:59;;;;;;;13.50;6.27;;;;;;;18.56;43.15;103322.41;5029286;28;20179;-73
2022/03/27 03:24:25;;;;;;;14.47;6.77;;;;;;;18.79;42.86;103325.84;5030520;28;20493;-73
2022/03/27 03:26:52;;;;;;;13.17;7.00;;;;;;;18.35;43.40;103323.38;5030605;28;20023;-72
2022/03/27 03:29:17;;;;;;;15.87;7.50;;;;;;;18.63;42.44;103322.38;5029592;28;20029;-72
2022/03/27 03:31:43;;;;;;;15.13;7.27;;;;;;;18.66;43.17;103326.78;5030508;28;20116;-73
2022/03/27 03:34:09;;;;;;;13.57;6.67;;;;;;;19.14;41.70;103322.13;5038328;28;20110;-73
2022/03/27 03:36:34;;;;;;;13.53;6.93;;;;;;;18.95;41.91;103320.47;5036207;28;20448;-72
2022/03/27 03:39:00;;;;;;;14.37;7.40;;;;;;;19.27;40.97;103319.38;5030444;28;20014;-72
2022/03/27 03:41:26;;;;;;;14.73;7.40;;;;;;;19.06;41.58;103323.94;5030398;28;20108;-72
2022/03/27 03:43:51;;;;;;;15.73;7.50;;;;;;;18.82;42.55;103330.22;5030027;28;20029;-72
2022/03/27 03:46:16;;;;;;;14.43;6.63;;;;;;;18.63;42.59;103324.16;5031600;28;20033;-73
2022/03/27 03:48:42;;;;;;;12.33;5.40;;;;;;;17.78;43.91;103327.84;5030303;28;20071;-73
2022/03/27 03:51:07;;;;;;;11.43;6.10;;;;;;;17.99;44.80;103320.81;5029105;28;20029;-72
2022/03/27 03:53:32;;;;;;;13.30;5.93;;;;;;;19.62;40.67;103326.19;5031767;28;20021;-72
2022/03/27 03:55:58;;;;;;;12.27;6.73;;;;;;;19.44;40.46;103325.44;5031218;28;20028;-72
2022/03/27 03:58:23;;;;;;;14.50;6.70;;;;;;;18.10;43.73;103319.00;5029605;28;20521;-73
2022/03/27 04:00:50;;;;;;;14.47;6.60;;;;;;;16.97;45.35;103320.75;5033644;28;20550;-72
2022/03/27 04:03:16;;;;;;;15.27;7.53;;;;;;;18.14;44.29;103318.13;5031026;28;20390;-72
2022/03/27 04:05:41;;;;;;;14.40;7.00;;;;;;;18.15;43.85;103316.38;5030928;28;20025;-72
2022/03/27 04:08:07;;;;;;;15.10;7.07;;;;;;;18.21;43.23;103302.25;5029222;28;20090;-72
2022/03/27 04:10:32;;;;;;;12.47;6.07;;;;;;;17.44;44.85;103322.56;5033654;28;20025;-73
2022/03/27 04:12:57;;;;;;;13.27;6.47;;;;;;;18.24;43.02;103318.09;5037433;28;20026;-72
2022/03/27 04:15:23;;;;;;;14.60;7.03;;;;;;;17.17;45.25;103323.41;5029839;28;20060;-72
2022/03/27 04:17:50;;;;;;;14.00;7.17;;;;;;;18.70;42.34;103319.69;5029191;28;20025;-72
2022/03/27 04:20:16;;;;;;;14.80;7.10;;;;;;;18.41;43.25;103313.63;5029492;28;20112;-72
2022/03/27 04:22:43;;;;;;;12.00;6.20;;;;;;;18.67;41.56;103323.25;5029338;28;20057;-73
2022/03/27 04:25:10;;;;;;;14.23;6.60;;;;;;;17.15;45.54;103321.66;5041628;28;20032;-72
2022/03/27 04:27:37;;;;;;;15.07;7.70;;;;;;;18.74;42.25;103317.03;5050902;28;20530;-73
2022/03/27 04:30:08;;;;;;;15.50;7.57;;;;;;;17.56;43.94;103321.69;5045104;28;20104;-72
2022/03/27 04:32:34;;;;;;;11.80;6.20;;;;;;;18.40;42.37;103311.88;5027805;28;20033;-72
2022/03/27 04:34:59;;;;;;;11.23;6.23;;;;;;;18.25;43.30;103322.53;5029525;28;20021;-72
2022/03/27 04:37:25;;;;;;;11.17;6.43;;;;;;;18.58;42.07;103325.94;5029114;28;20401;-72
2022/03/27 04:39:50;;;;;;;15.07;6.83;;;;;;;19.67;39.74;103327.91;5029639;28;20059;-72
2022/03/27 04:42:16;;;;;;;14.30;7.30;;;;;;;17.92;42.68;103325.22;5028516;28;20033;-72
2022/03/27 04:44:41;;;;;;;14.97;6.97;;;;;;;18.81;41.50;103326.69;5048083;28;20454;-72
2022/03/27 04:47:07;;;;;;;14.70;7.50;;;;;;;19.25;40.88;103323.84;5048441;28;20434;-73
2022/03/27 04:49:32;;;;;;;14.77;7.80;;;;;;;18.78;41.25;103329.38;5013723;28;20033;-72
2022/03/27 04:51:58;;;;;;;15.90;6.60;;;;;;;19.85;38.79;103320.69;5031210;28;20032;-72
2022/03/27 04:54:23;;;;;;;13.63;7.00;;;;;;;19.33;40.08;103328.19;5040153;28;20031;-72
2022/03/27 04:56:48;;;;;;;12.80;7.23;;;;;;;19.44;40.26;103335.16;5030377;28;20036;-72
2022/03/27 04:59:14;;;;;;;10.17;5.73;;;;;;;18.47;41.45;103333.91;5029132;28;20384;-72
2022/03/27 05:01:41;;;;;;;12.00;5.90;;;;;;;18.48;41.03;103333.91;5029264;28;20025;-72
2022/03/27 05:04:06;;;;;;;12.20;6.07;;;;;;;18.53;41.02;103338.31;5028802;28;20369;-72
2022/03/27 05:06:32;;;;;;;11.73;6.17;;;;;;;19.79;38.50;103334.84;5030814;28;20079;-72
2022/03/27 05:08:58;;;;;;;11.07;5.90;;;;;;;19.43;39.24;103334.28;5039264;28;20029;-72
2022/03/27 05:11:30;;;;;;;12.33;5.70;;;;;;;19.63;39.13;103335.88;5048822;28;20021;-72
2022/03/27 05:13:55;;;;;;;12.40;6.57;;;;;;;18.24;41.70;103340.16;5045735;28;20108;-72
2022/03/27 05:16:21;;;;;;;10.67;5.57;;;;;;;18.30;41.63;103336.63;5028698;28;20125;-72
2022/03/27 05:18:47;;;;;;;10.57;5.20;;;;;;;18.21;41.62;103336.66;5030904;28;20021;-72
2022/03/27 05:21:12;;;;;;;9.07;4.77;;;;;;;17.66;42.05;103341.09;5031270;28;20475;-72
2022/03/27 05:23:37;;;;;;;11.03;5.33;;;;;;;17.52;42.56;103342.84;5030677;28;20104;-72
2022/03/27 05:26:03;;;;;;;10.00;5.40;;;;;;;17.59;42.35;103336.69;5042961;28;20098;-72
2022/03/27 05:28:30;;;;;;;11.07;5.10;;;;;;;18.47;40.72;103332.13;5034931;28;20470;-72
2022/03/27 05:30:56;;;;;;;12.70;5.40;;;;;;;17.41;42.92;103338.44;5031354;28;20022;-73
2022/03/27 05:33:22;;;;;;;10.27;5.27;;;;;;;16.96;43.87;103340.09;5029056;28;20071;-73
2022/03/27 05:35:47;;;;;;;12.57;6.10;;;;;;;17.89;41.81;103345.50;5027436;28;20120;-72
2022/03/27 05:38:13;;;;;;;12.30;6.13;;;;;;;18.17;40.77;103334.88;5028664;28;20543;-72
2022/03/27 05:40:40;;;;;;;10.87;5.23;;;;;;;18.03;41.78;103333.16;5028537;28;20061;-72
2022/03/27 05:43:06;;;;;;;13.77;5.87;;;;;;;18.55;40.67;103336.56;5027780;28;20029;-72
2022/03/27 05:45:31;;;;;;;11.03;5.50;;;;;;;17.74;41.36;103341.97;5034099;28;20405;-73
2022/03/27 05:47:56;;;;;;;10.93;6.17;;;;;;;17.74;41.58;103341.09;5032067;28;20404;-72
2022/03/27 05:50:23;;;;;;;12.43;5.53;;;;;;;17.60;41.96;103338.44;5031812;28;20120;-73
2022/03/27 05:52:50;;;;;;;9.70;5.07;;;;;;;17.58;42.35;103337.56;5033779;28;20426;-72
2022/03/27 05:55:15;;;;;;;9.00;5.07;;;;;;;18.75;39.38;103334.69;5031831;28;20018;-72
2022/03/27 05:57:42;;;;;;;11.00;6.23;;;;;;;17.84;41.25;103328.75;5032190;28;20109;-72
2022/03/27 06:00:09;;;;;;;11.87;5.50;;;;;;;18.62;40.31;103336.50;5037101;28;20504;-72
2022/03/27 06:02:35;;;;;;;10.87;5.20;;;;;;;18.62;39.94;103332.97;5036704;28;20056;-72
2022/03/27 06:05:00;;;;;;;13.03;5.93;;;;;;;18.10;41.08;103339.31;5031711;28;20366;-72
2022/03/27 06:07:26;;;;;;;12.53;5.97;;;;;;;18.36;40.83;103341.03;5032234;28;20032;-72
2022/03/27 06:09:51;;;;;;;11.67;5.23;;;;;;;18.76;40.08;103347.03;5031774;28;20021;-72
2022/03/27 06:12:17;;;;;;;10.47;5.60;;;;;;;18.50;40.46;103343.63;5031169;28;20033;-72
2022/03/27 06:14:42;;;;;;;9.93;5.47;;;;;;;18.21;40.17;103348.09;5048819;28;20033;-72
2022/03/27 06:17:08;;;;;;;10.30;5.13;;;;;;;18.03;40.84;103349.03;5051627;28;20392;-72
2022/03/27 06:19:33;;;;;;;10.67;5.93;;;;;;;17.45;42.13;103361.34;5050419;28;20025;-72
2022/03/27 06:21:59;;;;;;;8.33;4.77;;;;;;;16.94;42.96;103357.72;5031319;28;20404;-73
2022/03/27 06:24:26;;;;;;;9.20;5.23;;;;;;;17.09;42.79;103363.03;5032266;28;20025;-72
2022/03/27 06:26:52;;;;;;;10.93;5.27;;;;;;;17.97;40.94;103364.91;5052888;28;20460;-73
2022/03/27 06:29:18;;;;;;;10.90;5.37;;;;;;;18.40;40.07;103362.19;5051240;28;20059;-72
2022/03/27 06:31:43;;;;;;;10.63;4.80;;;;;;;18.00;40.37;103364.91;5045379;28;20540;-72
2022/03/27 06:34:09;;;;;;;9.53;4.77;;;;;;;17.51;41.15;103360.47;5030794;28;20036;-73
2022/03/27 06:36:35;;;;;;;8.23;4.17;;;;;;;16.98;42.57;103370.06;5043439;28;20369;-73
2022/03/27 06:39:02;;;;;;;9.77;5.37;;;;;;;17.68;41.11;103372.81;5034194;28;20025;-72
2022/03/27 06:41:27;;;;;;;8.87;4.03;;;;;;;17.72;40.50;103369.28;5040030;28;20037;-72
2022/03/27 06:43:53;;;;;;;11.67;5.03;;;;;;;17.74;40.41;103364.91;5029864;28;20152;-73
2022/03/27 06:46:19;;;;;;;10.23;4.80;;;;;;;18.49;39.27;103358.59;5030671;28;20029;-72
2022/03/27 06:48:45;;;;;;;7.77;4.33;;;;;;;19.05;38.50;103358.41;5032968;28;20036;-72
2022/03/27 06:51:11;;;;;;;10.20;5.20;;;;;;;18.74;38.44;103369.13;5031873;28;20033;-72
2022/03/27 06:53:37;;;;;;;9.07;4.53;;;;;;;18.91;38.23;103366.44;5030555;28;20136;-72
2022/03/27 06:56:02;;;;;;;11.20;5.10;;;;;;;18.96;38.14;103375.25;5031454;28;20029;-72
2022/03/27 06:58:28;;;;;;;11.10;4.97;;;;;;;18.92;38.23;103369.06;5031387;28;20030;-72
2022/03/27 07:03:37;;;;;;;9.73;4.93;;;;;;;16.81;41.49;103366.44;5032760;28;20078;-72
2022/03/27 07:06:03;;;;;;;11.67;5.10;;;;;;;17.66;40.01;103370.16;5030801;28;20112;-72
2022/03/27 07:08:29;;;;;;;10.53;5.13;;;;;;;18.76;38.40;103356.75;5034057;28;20041;-72
2022/03/27 07:10:55;;;;;;;7.87;4.57;;;;;;;18.38;38.35;103361.31;5051000;28;20032;-72
2022/03/27 07:13:21;;;;;;;9.37;4.83;;;;;;;18.53;39.12;103360.34;5032247;28;20117;-73
2022/03/27 07:15:48;;;;;;;10.03;5.17;;;;;;;19.18;38.08;103359.22;5030252;28;20124;-73
2022/03/27 07:18:14;;;;;;;9.07;4.60;;;;;;;18.79;37.80;103356.72;5031552;28;20079;-73
2022/03/27 07:20:41;;;;;;;9.93;5.17;;;;;;;18.67;38.04;103357.69;5045047;28;20124;-72
2022/03/27 07:23:09;;;;;;;8.13;4.50;;;;;;;19.73;36.31;103357.91;5043580;28;20386;-73
2022/03/27 07:25:36;;;;;;;9.40;4.60;;;;;;;19.37;36.55;103360.88;5030793;28;20440;-73
2022/03/27 07:28:06;;;;;;;7.83;4.40;;;;;;;19.43;36.45;103363.47;5029417;28;20618;-72
2022/03/27 07:30:32;;;;;;;9.07;4.50;;;;;;;19.73;35.84;103365.88;5030886;28;20030;-72
2022/03/27 07:32:57;;;;;;;8.93;4.57;;;;;;;19.79;35.95;103357.88;5030570;28;20124;-72
2022/03/27 07:35:25;;;;;;;9.70;5.43;;;;;;;19.33;36.55;103365.31;5032639;28;20112;-72
2022/03/27 07:37:54;;;;;;;10.23;4.77;;;;;;;19.17;37.24;103362.78;5030128;28;20029;-72
2022/03/27 07:40:23;;;;;;;9.67;4.33;;;;;;;19.18;37.30;103353.91;5047606;28;20033;-71
2022/03/27 07:42:50;;;;;;;8.20;4.40;;;;;;;19.70;36.14;103353.53;5023058;28;20104;-71
2022/03/27 07:45:18;;;;;;;7.27;4.23;;;;;;;20.24;35.93;103354.81;5016703;28;20036;-72
2022/03/27 07:47:44;;;;;;;9.27;5.00;;;;;;;21.49;34.71;103350.50;5031547;28;20493;-71
2022/03/27 07:50:11;;;;;;;10.00;4.70;;;;;;;23.64;31.69;103344.31;5029680;28;20029;-71
2022/03/27 07:52:37;;;;;;;7.70;4.13;;;;;;;24.65;28.39;103336.25;5030858;28;20067;-72
2022/03/27 07:55:04;;;;;;;7.95;4.15;;;;;;;24.10;28.50;103352.03;5030214;28;20041;-71
2022/03/27 07:57:29;;;;;;;5.28;3.45;;;;;;;25.14;26.89;103342.75;5031017;28;20065;-71
2022/03/27 07:59:55;;;;;;;6.32;3.78;;;;;;;26.52;25.17;103341.50;5031621;28;20053;-71
2022/03/27 08:02:21;;;;;;;5.70;3.67;;;;;;;27.53;23.42;103346.47;5028891;28;20033;-72
2022/03/27 08:04:47;;;;;;;6.13;4.00;;;;;;;27.06;23.84;103346.59;5028535;28;20021;-71
2022/03/27 08:07:13;;;;;;;6.10;3.70;;;;;;;26.40;24.23;103352.72;5029852;28;20033;-71
2022/03/27 08:09:39;;;;;;;6.22;3.67;;;;;;;27.16;23.14;103353.34;5031424;28;20107;-72
2022/03/27 08:12:07;;;;;;;5.25;3.47;;;;;;;27.78;22.05;103358.84;5028926;28;20120;-71
2022/03/27 08:14:33;;;;;;;4.50;3.60;;;;;;;27.14;22.74;103365.94;5031625;28;20037;-71
2022/03/27 08:16:58;;;;;;;5.20;3.40;;;;;;;27.29;22.69;103363.59;5061683;28;20120;-71
2022/03/27 08:19:24;;;;;;;5.15;3.40;;;;;;;26.17;23.27;103362.50;5030863;28;20427;-71
2022/03/27 08:21:50;;;;;;;4.60;3.40;;;;;;;25.10;24.07;103357.16;5029825;28;20049;-71
2022/03/27 08:24:15;;;;;;;5.47;3.30;;;;;;;27.07;22.67;103359.09;5012740;28;20037;-71
2022/03/27 08:26:55;;;;;;;5.70;3.92;;;;;;;28.63;20.99;103354.13;5030524;28;20131;-71
2022/03/27 08:29:25;;;;;;;5.35;3.95;;;;;;;28.86;20.60;103356.63;5030854;28;20030;-71
2022/03/27 08:31:51;;;;;;;4.50;3.35;;;;;;;27.88;21.81;103352.09;5029196;28;20029;-71
2022/03/27 08:34:18;;;;;;;4.00;2.88;;;;;;;28.47;19.52;103354.88;5030426;28;20047;-71
2022/03/27 08:36:44;;;;;;;5.13;3.13;;;;;;;27.68;20.36;103358.34;5031500;28;20040;-71
2022/03/27 08:39:09;;;;;;;5.32;3.22;;;;;;;28.15;20.39;103354.53;5029645;28;20053;-71
2022/03/27 08:41:36;;;;;;;5.72;3.70;;;;;;;28.27;19.69;103353.97;5028185;28;20052;-72
2022/03/27 08:44:01;;;;;;;4.63;3.10;;;;;;;27.94;19.39;103361.72;5029261;28;20028;-71
2022/03/27 08:46:29;;;;;;;7.32;2.92;;;;;;;28.43;19.34;103355.97;5030084;28;20030;-72
2022/03/27 08:49:00;;;;;;;5.32;3.42;;;;;;;27.81;18.87;103366.75;5029049;28;20531;-72
2022/03/27 08:51:38;;;;;;;4.82;3.25;;;;;;;28.50;18.76;103353.84;5034857;28;20028;-72
2022/03/27 08:54:07;;;;;;;4.38;3.22;;;;;;;26.95;20.60;103360.44;5044335;28;20105;-72
2022/03/27 08:56:34;;;;;;;4.80;3.30;;;;;;;28.44;19.46;103349.66;5009651;28;20025;-72
2022/03/27 08:59:06;;;;;;;4.10;2.83;;;;;;;26.75;20.25;103355.88;5021961;28;20119;-71
2022/03/27 09:01:32;;;;;;;5.07;3.00;;;;;;;26.62;19.37;103350.06;5028356;28;20095;-71
2022/03/27 09:03:58;;;;;;;5.20;2.88;;;;;;;27.03;20.14;103358.31;5028819;28;20030;-71
2022/03/27 09:06:25;;;;;;;5.30;3.00;;;;;;;28.31;18.36;103346.63;5029944;28;20110;-72
2022/03/27 09:08:53;;;;;;;5.35;3.10;;;;;;;29.79;17.23;103352.00;5030751;28;20025;-72
2022/03/27 09:11:20;;;;;;;4.43;3.25;;;;;;;28.30;18.88;103346.69;5028195;28;20389;-72
2022/03/27 09:13:49;;;;;;;5.65;3.35;;;;;;;27.72;19.50;103356.41;5022545;28;20036;-71
2022/03/27 09:16:16;;;;;;;4.78;3.10;;;;;;;29.22;18.37;103349.50;5029013;28;20033;-71
2022/03/27 09:18:53;;;;;;;6.10;3.60;;;;;;;29.69;17.31;103342.66;5031532;28;20100;-71
2022/03/27 09:21:21;;;;;;;4.57;3.17;;;;;;;29.79;18.24;103344.78;5012563;28;20057;-71
2022/03/27 09:24:01;;;;;;;4.70;3.22;;;;;;;29.72;17.49;103346.06;5026950;28;20527;-71
2022/03/27 09:26:28;;;;;;;3.85;2.90;;;;;;;28.82;18.56;103333.50;5033734;28;20116;-71
2022/03/27 09:29:04;;;;;;;5.47;3.40;;;;;;;27.31;19.41;103350.94;5038920;28;20108;-71
2022/03/27 09:31:29;;;;;;;4.63;3.20;;;;;;;27.37;19.58;103346.25;5032548;28;20026;-71
2022/03/27 09:34:00;;;;;;;4.90;3.08;;;;;;;27.21;19.35;103345.97;5033376;28;20036;-72
2022/03/27 09:36:27;;;;;;;5.60;3.38;;;;;;;28.09;18.81;103344.06;5032054;28;20017;-71
2022/03/27 09:38:58;;;;;;;4.72;2.95;;;;;;;27.77;19.41;103343.66;5032750;28;20022;-71
2022/03/27 09:41:42;;;;;;;5.30;2.90;;;;;;;29.07;17.37;103345.75;5033730;28;20367;-71
2022/03/27 09:44:29;;;;;;;4.35;2.80;;;;;;;28.00;18.32;103344.47;5032987;28;20167;-72
2022/03/27 09:47:08;;;;;;;5.10;3.45;;;;;;;28.72;17.59;103337.59;5031775;28;20029;-71
2022/03/27 09:49:34;;;;;;;5.25;3.00;;;;;;;28.13;18.04;103348.34;5031418;28;20041;-70
2022/03/27 09:52:05;;;;;;;3.90;2.80;;;;;;;28.84;17.24;103342.38;5033837;28;20029;-71
2022/03/27 09:54:53;;;;;;;5.30;2.58;;;;;;;29.25;17.42;103341.28;5031694;28;20033;-71
2022/03/27 09:57:25;;;;;;;5.15;2.80;;;;;;;29.04;16.82;103333.31;5031749;28;20366;-71
2022/03/27 09:59:52;;;;;;;4.35;3.00;;;;;;;29.25;16.53;103334.09;5031528;28;20017;-71
2022/03/27 10:02:28;;;;;;;3.80;2.78;;;;;;;29.29;16.30;103332.09;5039112;28;20135;-71
2022/03/27 10:05:00;;;;;;;4.75;2.90;;;;;;;28.60;17.10;103328.25;5052216;28;20056;-71
2022/03/27 10:07:27;;;;;;;4.25;2.33;;;;;;;29.17;17.57;103330.91;5051944;28;20380;-71
2022/03/27 10:09:54;;;;;;;3.97;2.70;;;;;;;28.36;16.68;103328.47;5035261;28;20438;-70
2022/03/27 10:12:27;;;;;;;4.03;2.25;;;;;;;29.41;16.55;103326.09;5052042;28;20112;-71
2022/03/27 10:14:55;;;;;;;3.97;2.40;;;;;;;28.51;17.31;103326.00;5052251;28;20029;-70
2022/03/27 10:17:23;;;;;;;4.25;2.20;;;;;;;27.95;17.54;103333.03;5052319;28;20020;-70
2022/03/27 10:19:54;;;;;;;4.13;2.67;;;;;;;28.29;17.35;103323.44;5020287;28;20124;-71
2022/03/27 10:22:21;;;;;;;4.22;2.60;;;;;;;30.14;15.34;103318.75;5042646;28;20484;-71
2022/03/27 10:24:51;;;;;;;3.80;2.58;;;;;;;29.72;16.77;103320.97;5032304;28;20029;-71
2022/03/27 10:27:18;;;;;;;4.03;2.25;;;;;;;27.48;17.50;103326.09;5055097;28;20147;-71
2022/03/27 10:29:45;;;;;;;5.22;3.00;;;;;;;28.50;17.33;103311.69;5033170;28;20112;-71
2022/03/27 10:32:11;;;;;;;4.00;3.05;;;;;;;28.73;18.09;103317.81;5030469;28;20029;-70
2022/03/27 10:34:44;;;;;;;4.47;3.00;;;;;;;29.36;17.72;103308.44;5047513;28;20029;-71
2022/03/27 10:37:20;;;;;;;3.80;2.55;;;;;;;27.89;19.44;103318.94;5037634;28;20079;-71
2022/03/27 10:40:09;;;;;;;6.45;3.60;;;;;;;28.30;18.62;103306.38;5031921;28;20231;-71
2022/03/27 10:42:43;;;;;;;8.02;3.17;;;;;;;28.15;18.63;103310.66;5032939;28;20030;-71
2022/03/27 10:45:16;;;;;;;5.40;3.53;;;;;;;27.80;19.15;103305.91;5035188;28;20034;-71
2022/03/27 10:47:41;;;;;;;7.30;2.97;;;;;;;29.09;19.04;103303.50;5032233;28;20053;-71
2022/03/27 10:50:08;;;;;;;3.63;2.92;;;;;;;28.80;18.00;103295.03;5031171;28;20100;-71
2022/03/27 10:52:36;;;;;;;4.82;2.83;;;;;;;28.37;17.98;103299.75;5033045;28;20036;-71
2022/03/27 10:55:13;;;;;;;4.68;2.97;;;;;;;27.90;18.09;103303.66;5031005;28;20040;-71
2022/03/27 10:57:41;;;;;;;5.78;2.92;;;;;;;28.74;18.14;103298.00;5031553;28;20025;-71
2022/03/27 11:00:09;;;;;;;3.95;2.42;;;;;;;28.08;17.87;103296.59;5030886;28;20022;-71
2022/03/27 11:02:45;;;;;;;5.68;2.67;;;;;;;28.93;17.17;103288.13;5015783;28;20769;-71
2022/03/27 11:05:30;;;;;;;4.50;2.67;;;;;;;27.13;19.19;103302.47;5029477;28;20041;-71
2022/03/27 11:08:14;;;;;;;5.10;2.97;;;;;;;26.62;19.83;103298.25;5029275;28;20025;-71
2022/03/27 11:10:41;;;;;;;5.35;3.15;;;;;;;27.34;18.35;103286.38;5023702;28;20444;-71
2022/03/27 11:13:25;;;;;;;5.45;2.67;;;;;;;28.66;17.23;103284.06;5040231;28;20091;-71
2022/03/27 11:16:10;;;;;;;3.33;2.47;;;;;;;28.74;16.73;103287.25;5026270;28;20033;-71
2022/03/27 11:18:39;;;;;;;4.03;2.53;;;;;;;29.08;17.42;103281.06;5031960;28;20033;-71
2022/03/27 11:21:34;;;;;;;4.93;2.40;;;;;;;29.19;17.78;103272.44;5029760;28;20045;-71
2022/03/27 11:24:02;;;;;;;6.40;2.80;;;;;;;28.15;18.96;103271.22;5029928;28;20029;-71
2022/03/27 11:26:29;;;;;;;5.28;2.92;;;;;;;27.90;18.38;103272.31;5031878;28;20041;-71
2022/03/27 11:29:17;;;;;;;4.82;2.78;;;;;;;28.50;17.65;103274.03;5037564;28;20170;-71